Dodge City Regional Airport Dodge City US
ICAO: KDDC
IATA: DDC
Category: Medium
Scheduled Services: Yes

Elevation: 2594 ft
TransAlt. 18000 ft.

Airport Communications:
ASOS:118.525
KANSAS CITY CNTR:125.2
WICHITA RDO:122.35
CTAF/UNICOM:122.7

KDDC Zoom In..

If Map Doesn't Load, Click Here

Runways:

(A) RW 02 length 4649 ft width 100 ft
---- / hdg 24

(B) RW 14 length 6899 ft width 100 ft
ILS 111.70 / hdg 146

(C) RW 20 length 4649 ft width 100 ft
---- / hdg 204

(D) RW 32 length 6899 ft width 100 ft
---- / hdg 326

Location; KDDC
Day. 23 / Time. 07.52 Zulu
* Altimeter: 30.07
* Temperature: 10° c. 50°f.
* Wind from: 200° Speed 09 kn.
Dewpoint: 07° c.
Visibility: 10 Statute Miles.
Clouds: Clear (automated report).

KDDC 230752Z AUTO 20009KT 10SM CLR 10/07 A3007 RMK AO2 SLP168 T01000067


Wind From 200°
Speed 09 kn.

 
 
jpsmedia.com for Web Design worldairports.se 2018   terms of use